createdAt,value
2022-12-18T00:02:22.075Z,6.88
2022-12-18T00:07:16.061Z,7.55
2022-12-18T00:17:10.107Z,7.38
2022-12-18T00:22:03.508Z,7.03
2022-12-18T00:26:58.356Z,7.43
2022-12-18T00:31:51.300Z,8.48
2022-12-18T00:36:43.929Z,7.37
2022-12-18T00:41:56.681Z,8.68
2022-12-18T00:46:49.783Z,7.93
2022-12-18T00:51:43.649Z,7.07
2022-12-18T00:56:45.759Z,7.85
2022-12-18T01:01:42.596Z,7.75
2022-12-18T01:06:35.270Z,8.98
2022-12-18T01:11:27.636Z,7.65
2022-12-18T01:16:20.969Z,8.37
2022-12-18T01:21:16.526Z,8.32
2022-12-18T01:26:11.050Z,9.70
2022-12-18T01:31:25.103Z,8.95
2022-12-18T01:36:22.799Z,9.20
2022-12-18T01:41:17.807Z,7.70
2022-12-18T01:46:11.075Z,8.57
2022-12-18T01:55:59.589Z,9.60
2022-12-18T02:00:53.876Z,8.95
2022-12-18T02:06:09.305Z,8.60
2022-12-18T02:11:04.030Z,7.95
2022-12-18T02:16:36.909Z,8.45
2022-12-18T02:22:05.227Z,7.63
2022-12-18T02:27:17.516Z,8.63
2022-12-18T02:32:16.249Z,8.63
2022-12-18T02:37:17.541Z,8.68
2022-12-18T02:42:10.636Z,9.15
2022-12-18T02:47:03.385Z,9.43
2022-12-18T02:52:18.018Z,9.23
2022-12-18T02:57:30.617Z,9.02
2022-12-18T03:02:27.469Z,9.27
2022-12-18T03:07:29.627Z,11.05
2022-12-18T03:17:22.488Z,8.50
2022-12-18T03:22:18.659Z,9.23
2022-12-18T03:27:19.837Z,10.40
2022-12-18T03:32:38.001Z,10.52
2022-12-18T03:37:32.194Z,10.52
2022-12-18T03:42:41.321Z,10.93
2022-12-18T03:47:55.187Z,9.68
2022-12-18T03:52:59.362Z,9.55
2022-12-18T03:57:54.035Z,9.15
2022-12-18T04:02:50.694Z,9.63
2022-12-18T04:07:51.158Z,8.60
2022-12-18T04:12:44.524Z,9.57
2022-12-18T04:17:39.443Z,9.30
2022-12-18T04:22:33.437Z,9.48
2022-12-18T04:27:27.494Z,9.47
2022-12-18T04:32:21.549Z,9.55
2022-12-18T04:37:15.267Z,9.77
2022-12-18T04:42:08.846Z,9.32
2022-12-18T04:47:02.050Z,9.07
2022-12-18T04:51:55.594Z,8.45
2022-12-18T04:56:48.362Z,9.27
2022-12-18T05:01:42.205Z,8.63
2022-12-18T05:06:36.204Z,9.13
2022-12-18T05:11:29.870Z,9.50
2022-12-18T05:21:17.000Z,9.75
2022-12-18T05:26:09.974Z,8.80
2022-12-18T05:31:06.610Z,9.45
2022-12-18T05:36:05.130Z,9.18
2022-12-18T05:40:59.151Z,9.85
2022-12-18T05:45:53.032Z,9.27
2022-12-18T05:50:48.183Z,9.18
2022-12-18T05:55:43.357Z,10.52
2022-12-18T06:00:43.403Z,10.55
2022-12-18T06:05:40.817Z,10.30
2022-12-18T06:10:33.866Z,10.98
2022-12-18T06:15:27.820Z,10.63
2022-12-18T06:20:20.698Z,11.25
2022-12-18T06:25:14.998Z,12.32
2022-12-18T06:30:08.605Z,12.07
2022-12-18T06:35:01.586Z,12.95
2022-12-18T06:39:55.239Z,12.23
2022-12-18T06:44:49.178Z,11.88
2022-12-18T06:49:42.938Z,11.38
2022-12-18T06:54:40.147Z,11.43
2022-12-18T06:59:33.833Z,11.75
2022-12-18T07:04:31.179Z,10.63
2022-12-18T07:09:25.548Z,10.55
2022-12-18T07:14:20.223Z,10.70
2022-12-18T07:24:09.831Z,12.93
2022-12-18T07:29:03.996Z,11.95
2022-12-18T07:33:56.192Z,12.02
2022-12-18T07:38:51.120Z,11.60
2022-12-18T07:43:44.190Z,13.43
2022-12-18T07:48:37.573Z,14.00
2022-12-18T07:53:31.665Z,13.88
2022-12-18T07:58:25.105Z,14.98
2022-12-18T08:03:18.174Z,15.50
2022-12-18T08:08:11.528Z,16.08
2022-12-18T08:13:05.429Z,17.30
2022-12-18T08:17:59.021Z,18.85
2022-12-18T08:22:52.554Z,18.88
2022-12-18T08:27:46.617Z,20.25
2022-12-18T08:32:40.783Z,22.48
2022-12-18T08:42:45.390Z,22.70
2022-12-18T08:47:38.714Z,22.00
2022-12-18T08:57:28.604Z,23.48
2022-12-18T09:02:22.533Z,22.23
2022-12-18T09:07:16.935Z,21.67
2022-12-18T09:17:03.751Z,25.45
2022-12-18T09:21:56.994Z,25.97
2022-12-18T09:26:52.536Z,24.55
2022-12-18T09:31:48.831Z,25.33
2022-12-18T09:36:42.153Z,25.00
2022-12-18T09:42:10.648Z,21.40
2022-12-18T09:47:18.858Z,21.63
2022-12-18T09:52:43.950Z,19.98
2022-12-18T09:57:42.283Z,17.90
2022-12-18T10:02:36.171Z,17.23
2022-12-18T10:07:35.404Z,16.17
2022-12-18T10:13:04.982Z,14.70
2022-12-18T10:18:43.345Z,16.00
2022-12-18T10:23:51.150Z,16.90
2022-12-18T10:28:43.995Z,16.42
2022-12-18T10:33:37.361Z,16.88
2022-12-18T10:38:33.308Z,14.80
2022-12-18T10:43:45.172Z,16.08
2022-12-18T10:48:51.670Z,15.02
2022-12-18T10:54:04.713Z,15.48
2022-12-18T10:59:06.092Z,17.55
2022-12-18T11:04:02.076Z,15.73
2022-12-18T11:09:07.874Z,16.15
2022-12-18T11:14:26.236Z,16.70
2022-12-18T11:19:27.529Z,18.42
2022-12-18T11:24:33.286Z,23.23
2022-12-18T11:29:50.346Z,21.25
2022-12-18T11:34:58.866Z,17.42
2022-12-18T11:40:20.129Z,16.30
2022-12-18T11:45:13.731Z,16.77
2022-12-18T11:50:20.710Z,18.75
2022-12-18T11:55:30.330Z,24.35
2022-12-18T12:00:24.409Z,14.98
2022-12-18T12:05:45.286Z,16.33
2022-12-18T12:10:47.447Z,16.35
2022-12-18T12:15:59.143Z,17.67
2022-12-18T12:21:18.270Z,18.98
2022-12-18T12:26:14.582Z,20.80
2022-12-18T12:31:22.146Z,19.75
2022-12-18T12:36:38.795Z,21.80
2022-12-18T12:41:53.346Z,20.60
2022-12-18T12:46:47.179Z,18.20
2022-12-18T12:51:47.106Z,19.52
2022-12-18T12:56:45.411Z,20.50
2022-12-18T13:02:07.577Z,18.75
2022-12-18T13:07:28.361Z,19.67
2022-12-18T13:12:41.915Z,21.25
2022-12-18T13:17:37.180Z,22.73
2022-12-18T13:22:44.406Z,24.50
2022-12-18T13:27:49.735Z,24.75
2022-12-18T13:32:44.036Z,20.63
2022-12-18T13:37:45.772Z,23.08
2022-12-18T13:43:01.419Z,21.83
2022-12-18T13:47:55.170Z,20.60
2022-12-18T13:52:48.661Z,22.83
2022-12-18T13:57:42.197Z,22.23
2022-12-18T14:02:35.895Z,23.35
2022-12-18T14:07:34.614Z,23.67
2022-12-18T14:12:56.719Z,23.92
2022-12-18T14:17:49.768Z,22.88
2022-12-18T14:22:46.292Z,25.38
2022-12-18T14:27:43.512Z,25.98
2022-12-18T14:32:37.751Z,24.80
2022-12-18T14:37:32.587Z,24.98
2022-12-18T14:42:29.570Z,26.30
2022-12-18T14:47:24.272Z,29.00
2022-12-18T14:52:29.428Z,30.95
2022-12-18T14:57:28.157Z,30.17
2022-12-18T15:02:27.539Z,30.23
2022-12-18T15:07:24.732Z,30.98
2022-12-18T15:12:45.466Z,31.23
2022-12-18T15:17:39.111Z,30.20
2022-12-18T15:22:36.336Z,30.77
2022-12-18T15:27:36.803Z,29.45
2022-12-18T15:32:30.474Z,29.27
2022-12-18T15:37:25.688Z,28.65
2022-12-18T15:42:37.017Z,30.70
2022-12-18T15:47:30.696Z,31.65
2022-12-18T15:52:27.385Z,31.48
2022-12-18T15:57:24.745Z,30.63
2022-12-18T16:02:19.308Z,33.72
2022-12-18T16:07:15.079Z,35.65
2022-12-18T16:12:17.134Z,34.50
2022-12-18T16:17:11.882Z,32.83
2022-12-18T16:22:20.450Z,34.78
2022-12-18T16:27:13.800Z,37.67
2022-12-18T16:37:05.612Z,39.67
2022-12-18T16:41:59.015Z,38.30
2022-12-18T16:46:54.780Z,35.70
2022-12-18T16:51:48.579Z,36.88
2022-12-18T16:56:42.889Z,35.60
2022-12-18T17:01:36.044Z,38.97
2022-12-18T17:06:31.695Z,49.85
2022-12-18T17:11:25.914Z,49.92
2022-12-18T17:16:21.097Z,57.58
2022-12-18T17:21:15.343Z,40.92
2022-12-18T17:26:08.667Z,40.85
2022-12-18T17:31:03.501Z,55.22
2022-12-18T17:36:00.180Z,57.78
2022-12-18T17:40:54.247Z,46.13
2022-12-18T17:45:48.966Z,38.15
2022-12-18T17:50:42.466Z,41.40
2022-12-18T17:55:35.590Z,45.63
2022-12-18T18:00:28.275Z,49.67
2022-12-18T18:05:21.214Z,51.08
2022-12-18T18:10:14.351Z,45.30
2022-12-18T18:20:02.203Z,44.03
2022-12-18T18:24:56.035Z,44.85
2022-12-18T18:29:49.969Z,43.00
2022-12-18T18:34:42.760Z,50.13
2022-12-18T18:39:35.522Z,47.10
2022-12-18T18:44:29.237Z,45.17
2022-12-18T18:49:24.956Z,43.25
2022-12-18T18:54:19.396Z,47.17
2022-12-18T18:59:13.091Z,48.00
2022-12-18T19:04:07.207Z,51.35
2022-12-18T19:09:02.682Z,51.10
2022-12-18T19:13:57.328Z,47.92
2022-12-18T19:18:54.940Z,47.80
2022-12-18T19:23:50.911Z,47.92
2022-12-18T19:28:44.643Z,47.03
2022-12-18T19:33:43.802Z,47.35
2022-12-18T19:38:37.893Z,43.78
2022-12-18T19:43:33.173Z,40.85
2022-12-18T19:48:28.225Z,43.60
2022-12-18T19:53:21.873Z,38.17
2022-12-18T19:58:15.461Z,41.22
2022-12-18T20:03:20.503Z,49.50
2022-12-18T20:08:20.851Z,38.88
2022-12-18T20:13:14.108Z,40.03
2022-12-18T20:18:07.566Z,40.78
2022-12-18T20:23:01.645Z,40.75
2022-12-18T20:27:55.503Z,41.58
2022-12-18T20:32:49.146Z,41.40
2022-12-18T20:42:37.411Z,43.40
2022-12-18T20:52:25.656Z,42.35
2022-12-18T20:57:19.455Z,43.72
2022-12-18T21:02:14.103Z,45.58
2022-12-18T21:07:11.694Z,42.60
2022-12-18T21:12:24.003Z,41.22
2022-12-18T21:17:19.789Z,48.78
2022-12-18T21:22:13.249Z,42.50
2022-12-18T21:27:06.793Z,41.67
2022-12-18T21:36:52.488Z,42.78
2022-12-18T21:42:03.768Z,47.73
2022-12-18T21:47:14.548Z,45.95
2022-12-18T21:52:15.207Z,56.60
2022-12-18T21:57:09.387Z,46.38
2022-12-18T22:02:04.658Z,45.45
2022-12-18T22:07:02.226Z,51.95
2022-12-18T22:11:55.368Z,51.70
2022-12-18T22:16:48.720Z,50.65
2022-12-18T22:21:45.926Z,49.10
2022-12-18T22:26:40.899Z,48.10
2022-12-18T22:31:34.870Z,49.17
2022-12-18T22:36:28.910Z,51.38
2022-12-18T22:41:22.696Z,48.00
2022-12-18T22:46:17.377Z,47.17
2022-12-18T22:51:18.406Z,49.90
2022-12-18T22:56:17.110Z,50.63
2022-12-18T23:01:39.675Z,51.20
2022-12-18T23:06:33.886Z,52.78
2022-12-18T23:11:27.111Z,53.35
2022-12-18T23:16:20.622Z,51.38
2022-12-18T23:21:18.762Z,53.50
2022-12-18T23:26:18.859Z,54.28
2022-12-18T23:31:23.960Z,56.47
2022-12-18T23:36:17.125Z,55.25
2022-12-18T23:41:12.302Z,58.33
2022-12-18T23:46:14.670Z,60.85
2022-12-18T23:51:09.094Z,70.38
2022-12-18T23:56:03.188Z,56.20
